Time;durP1;ratioP1;P1;durP2;ratioP2;P2;SDS_P1;SDS_P2;PMS_P1;PMS_P2;Temp;Humidity;BMP_temperature;BMP_pressure;BME280_temperature;BME280_humidity;BME280_pressure;Samples;Min_cycle;Max_cycle;Signal;HPM_P1;HPM_P2
2023/06/07 00:00:13;;;;;;;3.28;0.80;;;12.70;99.90;;;;;;7398740;19;20382;-69
2023/06/07 00:02:43;;;;;;;2.33;0.70;;;12.70;99.90;;;;;;7401266;19;20368;-68
2023/06/07 00:05:13;;;;;;;2.33;0.70;;;12.60;99.90;;;;;;7400195;19;19934;-68
2023/06/07 00:07:42;;;;;;;1.17;0.52;;;12.50;99.90;;;;;;7400450;19;19927;-69
2023/06/07 00:10:11;;;;;;;2.67;0.80;;;12.50;99.90;;;;;;7400285;19;19933;-69
2023/06/07 00:12:40;;;;;;;1.88;0.60;;;12.40;99.90;;;;;;7398960;19;19947;-69
2023/06/07 00:15:13;;;;;;;1.80;0.73;;;12.60;99.90;;;;;;7401881;19;19918;-68
2023/06/07 00:17:43;;;;;;;2.65;0.82;;;12.60;99.90;;;;;;7399031;19;20337;-68
2023/06/07 00:20:12;;;;;;;1.65;0.80;;;12.80;99.90;;;;;;7399846;19;19992;-68
2023/06/07 00:22:43;;;;;;;3.17;1.00;;;12.70;99.90;;;;;;7399811;19;19936;-68
2023/06/07 00:25:13;;;;;;;1.98;0.80;;;12.60;99.90;;;;;;7397886;19;20370;-68
2023/06/07 00:27:42;;;;;;;2.55;0.70;;;12.70;99.90;;;;;;7399575;19;19994;-68
2023/06/07 00:30:17;;;;;;;2.47;0.57;;;12.60;99.90;;;;;;7400068;19;19951;-68
2023/06/07 00:32:46;;;;;;;1.25;0.60;;;12.60;99.90;;;;;;7397790;19;19915;-68
2023/06/07 00:35:16;;;;;;;1.55;0.80;;;12.60;99.90;;;;;;7400012;19;19922;-69
2023/06/07 00:37:45;;;;;;;0.77;0.52;;;12.50;99.90;;;;;;7398896;19;20332;-69
2023/06/07 00:40:15;;;;;;;0.75;0.73;;;12.60;99.90;;;;;;7398633;19;19926;-68
2023/06/07 00:42:44;;;;;;;1.33;0.52;;;12.60;99.90;;;;;;7396828;19;20010;-69
2023/06/07 00:45:16;;;;;;;2.63;0.70;;;12.40;99.90;;;;;;7400325;19;20360;-69
2023/06/07 00:47:45;;;;;;;;;;;12.50;99.90;;;;;;7401256;19;19923;-69
2023/06/07 00:50:14;;;;;;;1.50;0.50;;;12.40;99.90;;;;;;7399358;19;20585;-69
2023/06/07 00:52:44;;;;;;;1.77;0.70;;;12.30;99.90;;;;;;7397224;19;19921;-69
2023/06/07 00:55:15;;;;;;;1.85;0.60;;;12.30;99.90;;;;;;7398552;19;19922;-69
2023/06/07 00:57:45;;;;;;;2.15;0.90;;;12.20;99.90;;;;;;7395995;19;20435;-68
2023/06/07 01:00:18;;;;;;;1.38;0.55;;;12.30;99.90;;;;;;7398687;19;19956;-68
2023/06/07 01:02:49;;;;;;;1.65;0.68;;;12.20;99.90;;;;;;7397683;19;20667;-68
2023/06/07 01:05:20;;;;;;;3.17;0.98;;;12.10;99.90;;;;;;7397483;19;19930;-68
2023/06/07 01:07:50;;;;;;;1.42;0.75;;;12.30;99.90;;;;;;7395975;19;19994;-68
2023/06/07 01:10:19;;;;;;;1.50;0.65;;;12.20;99.90;;;;;;7398082;19;19925;-69
2023/06/07 01:12:53;;;;;;;2.45;0.80;;;12.00;99.90;;;;;;7399242;19;19937;-69
2023/06/07 01:15:26;;;;;;;2.78;0.98;;;12.00;99.90;;;;;;7400020;19;20035;-68
2023/06/07 01:17:57;;;;;;;1.05;0.60;;;12.00;99.90;;;;;;7398382;19;19929;-68
2023/06/07 01:20:28;;;;;;;1.38;0.60;;;12.10;99.90;;;;;;7395828;19;19934;-68
2023/06/07 01:23:00;;;;;;;0.82;0.50;;;12.00;99.90;;;;;;7397876;19;19927;-68
2023/06/07 01:25:31;;;;;;;1.95;0.65;;;11.90;99.90;;;;;;7392971;19;19923;-68
2023/06/07 01:28:03;;;;;;;1.77;0.95;;;12.00;99.90;;;;;;7397578;19;19919;-69
2023/06/07 01:30:33;;;;;;;1.33;0.60;;;12.10;99.90;;;;;;7396926;19;19922;-69
2023/06/07 01:33:06;;;;;;;1.58;0.60;;;12.00;99.90;;;;;;7398234;19;19921;-69
2023/06/07 01:35:37;;;;;;;1.25;0.80;;;11.90;99.90;;;;;;7393039;19;19982;-69
2023/06/07 01:38:06;;;;;;;1.60;0.80;;;11.90;99.90;;;;;;7395602;19;19919;-69
2023/06/07 01:40:39;;;;;;;1.85;0.77;;;12.00;99.90;;;;;;7398360;19;19998;-69
2023/06/07 01:43:08;;;;;;;1.98;1.00;;;12.00;99.90;;;;;;7393598;19;20575;-69
2023/06/07 01:45:38;;;;;;;1.60;0.80;;;12.00;99.90;;;;;;7400975;19;20337;-69
2023/06/07 01:48:08;;;;;;;2.40;1.13;;;12.10;99.90;;;;;;7404666;19;19926;-69
2023/06/07 01:50:37;;;;;;;2.58;0.75;;;12.00;99.90;;;;;;7400814;19;19922;-69
2023/06/07 01:53:06;;;;;;;3.42;0.98;;;12.10;99.90;;;;;;7404615;19;19922;-69
2023/06/07 01:55:38;;;;;;;1.92;1.10;;;12.10;99.90;;;;;;7403223;19;19923;-69
2023/06/07 01:58:15;;;;;;;2.05;0.77;;;12.10;99.90;;;;;;7405011;19;19926;-69
2023/06/07 02:00:54;;;;;;;1.20;0.70;;;12.40;99.90;;;;;;7406053;19;20522;-69
2023/06/07 02:03:31;;;;;;;1.85;0.68;;;12.10;99.90;;;;;;7404699;19;19922;-69
2023/06/07 02:06:04;;;;;;;1.73;0.80;;;12.10;99.90;;;;;;7402598;19;19926;-69
2023/06/07 02:08:37;;;;;;;1.70;0.80;;;12.00;99.90;;;;;;7404100;19;19926;-69
2023/06/07 02:11:09;;;;;;;2.42;0.75;;;12.10;99.90;;;;;;7405276;19;20322;-69
2023/06/07 02:13:42;;;;;;;1.50;0.90;;;12.20;99.90;;;;;;7404733;19;19929;-68
2023/06/07 02:16:12;;;;;;;2.03;0.63;;;12.00;99.90;;;;;;7404627;19;19965;-68
2023/06/07 02:18:43;;;;;;;2.05;0.80;;;12.30;99.90;;;;;;7405400;19;19954;-68
2023/06/07 02:21:12;;;;;;;1.17;0.70;;;12.20;99.90;;;;;;7402524;19;19919;-69
2023/06/07 02:23:41;;;;;;;1.60;0.70;;;12.20;99.90;;;;;;7401158;19;19930;-68
2023/06/07 02:26:13;;;;;;;0.95;0.60;;;12.10;99.90;;;;;;7400425;19;19922;-68
2023/06/07 02:28:42;;;;;;;2.22;0.60;;;12.20;99.90;;;;;;7400992;19;19949;-68
2023/06/07 02:31:11;;;;;;;2.17;0.70;;;12.40;99.90;;;;;;7401247;19;20323;-68
2023/06/07 02:33:41;;;;;;;1.85;0.70;;;12.30;99.90;;;;;;7399160;19;19921;-68
2023/06/07 02:36:09;;;;;;;1.88;0.50;;;12.30;99.90;;;;;;7401454;19;19933;-67
2023/06/07 02:38:39;;;;;;;1.15;0.50;;;12.40;99.90;;;;;;7400199;19;19924;-69
2023/06/07 02:41:08;;;;;;;1.60;0.57;;;12.50;99.90;;;;;;7401179;19;19925;-68
2023/06/07 02:43:39;;;;;;;1.98;0.63;;;12.50;99.90;;;;;;7398994;19;19918;-68
2023/06/07 02:46:08;;;;;;;1.85;0.60;;;12.50;99.90;;;;;;7401346;19;19915;-68
2023/06/07 02:48:37;;;;;;;1.42;0.65;;;12.60;99.90;;;;;;7400632;19;20224;-68
2023/06/07 02:51:11;;;;;;;0.52;0.50;;;12.60;99.90;;;;;;7399214;19;19923;-68
2023/06/07 02:53:40;;;;;;;2.65;0.90;;;12.60;99.90;;;;;;7400970;19;19926;-68
2023/06/07 02:56:10;;;;;;;4.20;1.30;;;12.50;99.90;;;;;;7399277;19;19918;-68
2023/06/07 02:58:42;;;;;;;1.90;0.70;;;12.60;99.90;;;;;;7401761;19;19919;-68
2023/06/07 03:01:11;;;;;;;1.45;0.68;;;12.50;99.90;;;;;;7402549;19;19926;-68
2023/06/07 03:03:40;;;;;;;1.17;0.57;;;12.60;99.90;;;;;;7403805;19;19942;-68
2023/06/07 03:06:09;;;;;;;1.30;0.70;;;12.40;99.90;;;;;;7399818;19;19986;-68
2023/06/07 03:08:38;;;;;;;2.88;1.17;;;12.40;99.90;;;;;;7401528;19;19990;-69
2023/06/07 03:11:07;;;;;;;1.27;0.63;;;12.50;99.90;;;;;;7401505;19;19939;-68
2023/06/07 03:13:36;;;;;;;2.50;0.90;;;12.50;99.90;;;;;;7401551;19;19933;-68
2023/06/07 03:16:08;;;;;;;1.67;0.82;;;12.50;99.90;;;;;;7400502;19;19922;-68
2023/06/07 03:18:37;;;;;;;;;;;12.50;99.90;;;;;;7403784;19;20014;-69
2023/06/07 03:21:06;;;;;;;5.32;0.85;;;12.60;99.90;;;;;;7400671;19;20558;-69
2023/06/07 03:23:35;;;;;;;1.73;0.65;;;12.60;99.90;;;;;;7400125;19;20348;-70
2023/06/07 03:26:05;;;;;;;0.80;0.43;;;12.40;99.90;;;;;;7402271;19;19918;-69
2023/06/07 03:28:34;;;;;;;2.20;0.82;;;12.40;99.90;;;;;;7401127;19;20010;-69
2023/06/07 03:31:04;;;;;;;2.08;0.70;;;12.50;99.90;;;;;;7402412;19;19923;-69
2023/06/07 03:33:35;;;;;;;2.92;0.75;;;12.30;99.90;;;;;;7401200;19;19944;-69
2023/06/07 03:36:07;;;;;;;2.08;0.60;;;12.50;99.90;;;;;;7399294;19;19999;-68
2023/06/07 03:38:36;;;;;;;1.33;0.50;;;12.40;99.90;;;;;;7400967;19;19934;-68
2023/06/07 03:41:05;;;;;;;2.42;0.88;;;12.40;99.90;;;;;;7402880;19;19935;-69
2023/06/07 03:43:34;;;;;;;3.10;0.70;;;12.40;99.90;;;;;;7399200;19;19970;-69
2023/06/07 03:46:03;;;;;;;1.15;0.55;;;12.60;99.90;;;;;;7401046;19;20253;-69
2023/06/07 03:48:36;;;;;;;4.22;0.60;;;12.50;99.90;;;;;;7400714;19;19918;-68
2023/06/07 03:51:05;;;;;;;1.58;0.63;;;12.50;99.90;;;;;;7400146;19;19986;-69
2023/06/07 03:53:34;;;;;;;1.80;0.70;;;12.40;99.90;;;;;;7400724;19;20282;-69
2023/06/07 03:56:03;;;;;;;1.58;0.52;;;12.60;99.90;;;;;;7401857;19;19923;-69
2023/06/07 03:58:32;;;;;;;1.58;0.50;;;12.40;99.90;;;;;;7400412;19;19951;-69
2023/06/07 04:01:01;;;;;;;2.13;0.60;;;11.60;99.90;;;;;;7397846;19;19918;-69
2023/06/07 04:03:32;;;;;;;1.90;0.50;;;12.50;99.90;;;;;;7400597;19;20412;-69
2023/06/07 04:06:04;;;;;;;2.28;0.90;;;12.40;99.90;;;;;;7398753;19;19934;-69
2023/06/07 04:08:33;;;;;;;1.55;0.73;;;12.30;99.90;;;;;;7394104;19;19950;-69
2023/06/07 04:11:02;;;;;;;1.85;0.50;;;12.50;99.90;;;;;;7399330;19;19978;-69
2023/06/07 04:13:30;;;;;;;1.45;0.50;;;12.30;99.90;;;;;;7400220;19;20005;-69
2023/06/07 04:15:59;;;;;;;2.13;0.60;;;12.50;99.90;;;;;;7397690;19;20383;-69
2023/06/07 04:18:28;;;;;;;1.17;0.50;;;12.30;99.90;;;;;;7401588;19;19922;-69
2023/06/07 04:20:57;;;;;;;2.10;0.80;;;12.30;99.90;;;;;;7398943;19;19961;-69
2023/06/07 04:23:29;;;;;;;1.63;0.60;;;12.40;99.90;;;;;;7399560;19;20340;-69
2023/06/07 04:26:00;;;;;;;1.83;0.50;;;12.50;99.90;;;;;;7401357;19;20353;-69
2023/06/07 04:28:30;;;;;;;1.05;0.50;;;12.30;99.90;;;;;;7399807;19;19953;-69
2023/06/07 04:30:59;;;;;;;1.50;0.55;;;12.40;99.90;;;;;;7397103;19;19925;-69
2023/06/07 04:33:28;;;;;;;1.08;0.60;;;12.40;99.90;;;;;;7400711;19;19922;-68
2023/06/07 04:35:58;;;;;;;2.50;0.80;;;12.50;99.90;;;;;;7399817;19;20422;-69
2023/06/07 04:38:31;;;;;;;2.03;0.80;;;12.50;99.90;;;;;;7398689;19;20309;-69
2023/06/07 04:41:06;;;;;;;0.80;0.40;;;12.50;99.90;;;;;;7398527;19;20340;-68
2023/06/07 04:43:36;;;;;;;2.08;0.70;;;12.60;99.90;;;;;;7399132;19;20339;-68
2023/06/07 04:46:05;;;;;;;2.45;0.70;;;12.70;99.90;;;;;;7400719;19;19970;-69
2023/06/07 04:48:40;;;;;;;1.92;0.70;;;12.60;99.90;;;;;;7399721;19;19936;-69
2023/06/07 04:51:09;;;;;;;1.38;0.50;;;12.50;99.90;;;;;;7399795;19;19926;-69
2023/06/07 04:53:42;;;;;;;1.20;0.60;;;12.50;99.90;;;;;;7400118;19;19934;-69
2023/06/07 04:56:12;;;;;;;1.63;0.60;;;12.50;99.90;;;;;;7405001;19;19946;-68
2023/06/07 04:58:42;;;;;;;3.35;0.68;;;12.60;99.90;;;;;;7398264;19;20265;-69
2023/06/07 05:01:11;;;;;;;0.98;0.50;;;12.50;99.90;;;;;;7400377;19;19933;-69
2023/06/07 05:03:43;;;;;;;4.00;0.63;;;12.70;99.90;;;;;;7398992;19;19977;-70
2023/06/07 05:06:12;;;;;;;1.45;0.60;;;12.80;99.90;;;;;;7398336;19;20527;-69
2023/06/07 05:08:43;;;;;;;1.00;0.40;;;13.60;99.90;;;;;;7397915;19;20294;-69
2023/06/07 05:11:12;;;;;;;1.15;0.52;;;12.80;99.90;;;;;;7399582;19;19925;-69
2023/06/07 05:13:41;;;;;;;2.22;0.57;;;12.90;99.90;;;;;;7397240;19;19955;-68
2023/06/07 05:16:15;;;;;;;1.95;0.60;;;12.20;99.90;;;;;;7399170;19;19956;-69
2023/06/07 05:18:46;;;;;;;2.45;0.75;;;12.70;99.90;;;;;;7395214;19;19919;-70
2023/06/07 05:21:15;;;;;;;1.98;0.70;;;12.80;99.90;;;;;;7403635;19;20430;-69
2023/06/07 05:23:50;;;;;;;2.30;0.60;;;12.80;99.90;;;;;;7402613;19;20290;-70
2023/06/07 05:26:19;;;;;;;1.38;0.70;;;13.00;99.90;;;;;;7404334;19;19951;-68
2023/06/07 05:28:48;;;;;;;2.05;1.00;;;12.90;99.90;;;;;;7402485;19;19936;-69
2023/06/07 05:31:18;;;;;;;1.40;0.60;;;12.90;99.90;;;;;;7406215;19;19925;-70
2023/06/07 05:33:47;;;;;;;1.75;0.52;;;13.10;99.90;;;;;;7404570;19;19966;-68
2023/06/07 05:36:16;;;;;;;3.13;0.80;;;13.10;99.90;;;;;;7395576;19;19923;-72
2023/06/07 05:46:44;;;;;;;1.52;0.45;;;13.30;99.90;;;;;;7345969;19;19919;-76
2023/06/07 05:49:15;;;;;;;2.55;0.80;;;12.40;99.90;;;;;;7398349;19;19982;-76
2023/06/07 05:51:44;;;;;;;1.77;0.80;;;13.50;99.90;;;;;;7401722;19;19922;-76
2023/06/07 05:54:13;;;;;;;2.85;1.00;;;13.50;99.90;;;;;;7375654;19;20248;-75
2023/06/07 05:56:42;;;;;;;2.22;0.80;;;13.30;99.90;;;;;;7402026;19;19947;-75
2023/06/07 05:59:11;;;;;;;1.52;0.50;;;13.50;99.90;;;;;;7404517;19;19986;-76
2023/06/07 06:01:44;;;;;;;1.20;0.50;;;13.40;99.90;;;;;;7404703;19;19930;-76
2023/06/07 06:04:15;;;;;;;1.20;0.50;;;13.30;99.90;;;;;;7404218;19;19970;-76
2023/06/07 06:06:44;;;;;;;2.53;0.75;;;13.50;99.90;;;;;;7405234;19;19950;-75
2023/06/07 06:09:13;;;;;;;4.53;0.85;;;13.60;99.90;;;;;;7401242;19;19939;-76
2023/06/07 06:11:43;;;;;;;1.77;0.60;;;13.50;99.90;;;;;;7405653;19;20294;-76
2023/06/07 06:14:12;;;;;;;2.75;0.80;;;13.60;99.90;;;;;;7402976;19;19923;-76
2023/06/07 06:16:44;;;;;;;1.27;0.50;;;13.90;99.90;;;;;;7405127;19;19933;-75
2023/06/07 06:19:13;;;;;;;2.88;0.70;;;13.70;99.90;;;;;;7405434;19;19918;-76
2023/06/07 06:21:42;;;;;;;2.50;0.57;;;13.80;99.90;;;;;;7404916;19;19986;-76
2023/06/07 06:24:11;;;;;;;3.35;0.90;;;13.70;99.90;;;;;;7404851;19;19919;-76
2023/06/07 06:26:41;;;;;;;1.90;0.50;;;13.70;99.90;;;;;;7404667;19;19918;-76
2023/06/07 06:29:10;;;;;;;1.42;0.60;;;13.50;99.90;;;;;;7405482;19;19915;-75
2023/06/07 06:31:39;;;;;;;3.08;0.70;;;14.00;99.90;;;;;;7404154;19;19922;-76
2023/06/07 06:34:12;;;;;;;1.38;0.50;;;14.20;99.90;;;;;;7405116;19;19925;-76
2023/06/07 06:36:41;;;;;;;1.95;0.80;;;14.20;99.90;;;;;;7404558;19;20261;-76
2023/06/07 06:39:11;;;;;;;2.22;0.70;;;14.30;99.90;;;;;;7404280;19;19922;-76
2023/06/07 06:41:40;;;;;;;2.35;0.60;;;14.40;99.90;;;;;;7405347;19;19922;-76
2023/06/07 06:44:09;;;;;;;2.45;0.50;;;14.50;99.90;;;;;;7405109;19;19939;-76
2023/06/07 06:46:39;;;;;;;3.03;0.70;;;14.60;99.90;;;;;;7402996;19;19978;-75
2023/06/07 06:49:11;;;;;;;1.00;0.65;;;14.70;99.90;;;;;;7404345;19;20276;-76
2023/06/07 06:51:42;;;;;;;2.70;0.93;;;14.70;99.90;;;;;;7405794;19;19922;-76
2023/06/07 06:54:12;;;;;;;0.80;0.43;;;14.80;99.90;;;;;;7403974;19;19930;-76
2023/06/07 06:56:41;;;;;;;1.48;0.50;;;14.80;99.90;;;;;;7406076;19;19918;-76
2023/06/07 06:59:11;;;;;;;1.10;0.60;;;14.90;99.90;;;;;;7404830;19;19939;-76
2023/06/07 07:01:48;;;;;;;3.85;1.38;;;14.90;99.90;;;;;;7403138;19;19918;-76
2023/06/07 07:04:20;;;;;;;2.28;0.70;;;14.90;99.90;;;;;;7404785;19;19947;-76
2023/06/07 07:06:49;;;;;;;1.92;0.68;;;14.90;99.90;;;;;;7403938;19;20293;-76
2023/06/07 07:09:19;;;;;;;1.10;0.60;;;15.00;99.90;;;;;;7404337;19;19934;-76
2023/06/07 07:11:50;;;;;;;1.05;0.50;;;14.80;99.90;;;;;;7404006;19;19926;-76
2023/06/07 07:14:20;;;;;;;1.48;0.50;;;14.90;99.90;;;;;;7402225;19;19928;-76
2023/06/07 07:16:49;;;;;;;0.90;0.50;;;15.00;99.90;;;;;;7402058;19;19927;-76
2023/06/07 07:19:21;;;;;;;2.47;0.70;;;15.00;99.90;;;;;;7402889;19;19927;-76
2023/06/07 07:21:50;;;;;;;;;;;15.00;99.90;;;;;;7404843;19;19918;-76
2023/06/07 07:24:19;;;;;;;;;;;14.90;99.90;;;;;;7404146;19;19951;-76
2023/06/07 07:26:48;;;;;;;1.17;0.50;;;14.80;99.90;;;;;;7401742;19;19926;-76
2023/06/07 07:29:18;;;;;;;2.63;0.70;;;14.90;99.90;;;;;;7398607;19;19930;-76
2023/06/07 07:31:47;;;;;;;1.38;0.50;;;14.70;99.90;;;;;;7403568;19;19943;-76
2023/06/07 07:34:16;;;;;;;2.00;0.50;;;14.60;99.90;;;;;;7401462;19;19942;-76
2023/06/07 07:36:50;;;;;;;2.53;0.70;;;14.60;99.90;;;;;;7398174;19;19942;-76
2023/06/07 07:39:21;;;;;;;1.48;0.50;;;14.80;99.90;;;;;;7401540;19;19943;-76
2023/06/07 07:41:55;;;;;;;2.05;0.75;;;14.70;99.90;;;;;;7399955;19;19943;-76
2023/06/07 07:44:33;;;;;;;2.10;0.65;;;14.70;99.90;;;;;;7401915;19;19926;-76
2023/06/07 07:47:07;;;;;;;3.03;0.57;;;14.80;99.90;;;;;;7398711;19;20459;-75
2023/06/07 07:49:36;;;;;;;1.92;0.60;;;14.70;99.90;;;;;;7400311;19;19919;-76
2023/06/07 07:52:08;;;;;;;1.48;0.60;;;14.90;99.90;;;;;;7399708;19;19929;-76
2023/06/07 07:54:41;;;;;;;1.45;0.47;;;15.00;99.90;;;;;;7398633;19;19919;-76
2023/06/07 07:57:10;;;;;;;0.70;0.40;;;14.90;99.90;;;;;;7403350;19;19926;-75
2023/06/07 07:59:41;;;;;;;0.80;0.60;;;14.90;99.90;;;;;;7400593;19;19925;-76
2023/06/07 08:02:11;;;;;;;1.08;0.70;;;14.90;99.90;;;;;;7399757;19;19923;-76
2023/06/07 08:04:40;;;;;;;1.70;0.60;;;15.00;99.90;;;;;;7399982;19;20847;-76
2023/06/07 08:07:15;;;;;;;1.65;0.57;;;14.90;99.90;;;;;;7401413;19;19918;-76
2023/06/07 08:09:44;;;;;;;1.33;0.40;;;14.90;99.90;;;;;;7401142;19;20364;-76
2023/06/07 08:12:14;;;;;;;1.40;0.63;;;14.90;99.90;;;;;;7400107;19;19930;-76
2023/06/07 08:14:43;;;;;;;1.88;0.60;;;14.90;99.90;;;;;;7399984;19;20004;-76
2023/06/07 08:17:12;;;;;;;2.17;0.70;;;15.00;99.90;;;;;;7400061;19;19942;-76
2023/06/07 08:19:42;;;;;;;2.85;1.02;;;15.00;99.90;;;;;;7402839;19;20014;-76
2023/06/07 08:22:14;;;;;;;3.50;0.75;;;15.00;99.90;;;;;;7400433;19;19978;-76
2023/06/07 08:24:43;;;;;;;1.92;0.68;;;14.20;99.90;;;;;;7400236;19;20014;-76
2023/06/07 08:27:13;;;;;;;1.45;0.60;;;15.20;99.90;;;;;;7400918;19;19919;-76
2023/06/07 08:29:42;;;;;;;0.75;0.40;;;15.20;99.90;;;;;;7400516;19;19931;-76
2023/06/07 08:32:11;;;;;;;2.03;0.50;;;15.20;99.90;;;;;;7398401;19;20356;-76
2023/06/07 08:34:40;;;;;;;1.85;0.70;;;15.30;99.90;;;;;;7402149;19;20331;-76
2023/06/07 08:37:09;;;;;;;1.65;0.55;;;15.40;99.90;;;;;;7399995;19;19998;-76
2023/06/07 08:39:41;;;;;;;1.13;0.68;;;15.40;99.90;;;;;;7399310;19;19939;-76
2023/06/07 08:42:13;;;;;;;2.25;0.73;;;15.50;99.90;;;;;;7400195;19;20008;-76
2023/06/07 08:44:43;;;;;;;1.98;0.70;;;15.50;99.90;;;;;;7401528;19;20320;-76
2023/06/07 08:47:15;;;;;;;1.92;0.50;;;15.50;99.90;;;;;;7396379;19;19914;-76
2023/06/07 08:49:46;;;;;;;1.15;0.98;;;15.70;99.90;;;;;;7400019;19;19926;-77
2023/06/07 08:52:15;;;;;;;1.20;0.52;;;15.60;99.90;;;;;;7397866;19;19922;-76
2023/06/07 08:54:50;;;;;;;1.73;0.55;;;15.80;99.90;;;;;;7398017;19;20336;-76
2023/06/07 08:57:21;;;;;;;2.22;0.63;;;15.80;99.90;;;;;;7397867;19;19923;-76
2023/06/07 08:59:50;;;;;;;1.23;0.43;;;16.10;99.90;;;;;;7399147;19;20005;-76
2023/06/07 09:02:21;;;;;;;1.70;0.70;;;15.90;99.90;;;;;;7399943;19;19926;-76
2023/06/07 09:04:51;;;;;;;1.33;0.73;;;16.00;99.90;;;;;;7398958;19;19941;-76
2023/06/07 09:07:20;;;;;;;1.70;0.65;;;16.00;99.90;;;;;;7398156;19;19918;-76
2023/06/07 09:09:51;;;;;;;2.50;0.60;;;16.10;99.90;;;;;;7399154;19;20344;-76
2023/06/07 09:12:21;;;;;;;1.88;0.63;;;16.20;99.90;;;;;;7398679;19;20395;-76
2023/06/07 09:14:50;;;;;;;1.50;0.63;;;16.10;99.90;;;;;;7399399;19;19926;-76
2023/06/07 09:17:19;;;;;;;1.27;0.60;;;16.10;99.90;;;;;;7396919;19;19943;-76
2023/06/07 09:19:49;;;;;;;1.45;0.80;;;16.00;99.90;;;;;;7399384;19;19923;-76
2023/06/07 09:22:25;;;;;;;2.75;0.65;;;16.30;99.90;;;;;;7399850;19;19930;-76
2023/06/07 09:24:57;;;;;;;3.20;0.60;;;16.40;99.90;;;;;;7399184;19;20343;-76
2023/06/07 09:27:32;;;;;;;;;;;16.50;99.90;;;;;;7399685;19;19914;-76
2023/06/07 09:30:08;;;;;;;2.72;0.68;;;16.70;99.90;;;;;;7398249;19;19919;-77
2023/06/07 09:32:39;;;;;;;1.65;0.68;;;16.80;99.90;;;;;;7400643;19;19919;-76
2023/06/07 09:35:19;;;;;;;1.73;0.75;;;15.30;99.90;;;;;;7397171;19;20322;-76
2023/06/07 09:37:50;;;;;;;1.05;0.70;;;16.80;99.90;;;;;;7395488;19;19925;-76
2023/06/07 09:40:24;;;;;;;1.27;0.60;;;16.90;99.90;;;;;;7394939;19;19919;-76
2023/06/07 09:43:00;;;;;;;2.40;1.10;;;17.00;99.90;;;;;;7401329;19;19933;-77
2023/06/07 09:45:30;;;;;;;1.63;0.77;;;17.10;99.90;;;;;;7399296;19;20634;-76
2023/06/07 09:48:09;;;;;;;1.65;0.77;;;17.20;99.90;;;;;;7399294;19;19950;-76
2023/06/07 09:50:38;;;;;;;1.42;0.80;;;17.40;99.90;;;;;;7398000;19;20415;-76
2023/06/07 09:53:09;;;;;;;3.50;0.80;;;17.30;99.90;;;;;;7398875;19;19926;-76
2023/06/07 09:55:40;;;;;;;1.48;0.73;;;17.40;99.90;;;;;;7399307;19;19922;-76
2023/06/07 09:58:23;;;;;;;2.17;0.70;;;17.60;99.90;;;;;;7389126;19;19939;-77
2023/06/07 10:00:54;;;;;;;1.35;0.57;;;17.50;99.90;;;;;;7396876;19;20275;-77
2023/06/07 10:03:23;;;;;;;1.52;0.47;;;17.50;99.90;;;;;;7396825;19;19918;-76
2023/06/07 10:05:53;;;;;;;2.40;0.70;;;17.70;99.90;;;;;;7400123;19;20006;-76
2023/06/07 10:08:22;;;;;;;2.55;0.90;;;17.90;99.90;;;;;;7404614;19;20391;-77
2023/06/07 10:10:55;;;;;;;1.00;0.60;;;17.90;99.90;;;;;;7402343;19;19940;-76
2023/06/07 10:13:25;;;;;;;1.55;0.65;;;18.10;99.90;;;;;;7404830;19;19937;-77
2023/06/07 10:15:58;;;;;;;2.38;0.73;;;18.20;99.90;;;;;;7403483;19;19953;-76
2023/06/07 10:18:28;;;;;;;2.83;0.80;;;17.30;99.90;;;;;;7404769;19;20320;-76
2023/06/07 10:21:03;;;;;;;1.85;0.80;;;18.20;99.90;;;;;;7404494;19;19923;-77
2023/06/07 10:23:39;;;;;;;1.83;0.75;;;18.20;99.90;;;;;;7403460;19;20573;-77
2023/06/07 10:26:21;;;;;;;1.15;0.60;;;18.20;99.90;;;;;;7403463;19;19928;-77
2023/06/07 10:28:55;;;;;;;1.42;0.70;;;18.20;99.90;;;;;;7404701;19;20276;-77
2023/06/07 10:31:31;;;;;;;3.35;0.90;;;18.40;99.90;;;;;;7402849;19;20006;-77
2023/06/07 10:34:07;;;;;;;2.38;0.70;;;18.30;99.90;;;;;;7402874;19;20023;-77
2023/06/07 10:36:38;;;;;;;1.77;0.77;;;18.50;99.90;;;;;;7400954;19;19922;-77
2023/06/07 10:39:11;;;;;;;1.95;0.75;;;18.50;99.90;;;;;;7404118;19;20023;-77
2023/06/07 10:41:47;;;;;;;2.22;1.00;;;18.80;99.90;;;;;;7403086;19;19938;-77
2023/06/07 10:44:16;;;;;;;3.03;1.10;;;18.70;99.90;;;;;;7403829;19;20261;-77
2023/06/07 10:46:45;;;;;;;1.95;0.70;;;18.70;99.90;;;;;;7402386;19;19925;-76
2023/06/07 10:49:38;;;;;;;1.80;0.90;;;18.70;99.90;;;;;;7402482;19;19957;-77
2023/06/07 10:52:11;;;;;;;2.88;0.88;;;18.70;99.90;;;;;;7403189;19;19951;-77
2023/06/07 10:54:41;;;;;;;1.98;0.80;;;18.70;99.90;;;;;;7402781;19;19927;-77
2023/06/07 10:57:13;;;;;;;1.75;0.80;;;19.00;99.90;;;;;;7403285;19;19922;-77
2023/06/07 10:59:42;;;;;;;2.10;1.20;;;19.00;99.90;;;;;;7402226;19;19978;-77
2023/06/07 11:02:26;;;;;;;2.08;0.70;;;19.10;99.90;;;;;;7403910;19;19935;-77
2023/06/07 11:04:59;;;;;;;1.75;1.00;;;19.00;99.90;;;;;;7403040;19;19915;-77
2023/06/07 11:07:30;;;;;;;1.98;0.80;;;19.20;99.90;;;;;;7403236;19;20248;-76
2023/06/07 11:10:29;;;;;;;1.77;0.70;;;19.20;99.90;;;;;;7404241;19;19981;-77
2023/06/07 11:13:00;;;;;;;1.58;0.77;;;19.40;99.90;;;;;;7401989;19;19918;-77
2023/06/07 11:15:35;;;;;;;;;;;19.50;99.90;;;;;;7405924;19;19947;-76
2023/06/07 11:18:07;;;;;;;1.60;0.90;;;19.50;99.90;;;;;;7402232;19;20363;-76
2023/06/07 11:21:16;;;;;;;2.53;1.20;;;19.50;99.90;;;;;;7401846;19;19987;-77
2023/06/07 11:23:45;;;;;;;1.40;0.93;;;19.60;99.90;;;;;;7396502;19;20316;-76
2023/06/07 11:26:15;;;;;;;1.52;0.60;;;19.60;99.90;;;;;;7400784;19;19922;-77
2023/06/07 11:28:47;;;;;;;2.95;0.80;;;19.80;99.90;;;;;;7391093;19;19918;-78
2023/06/07 11:31:16;;;;;;;2.30;0.77;;;19.60;99.90;;;;;;7399344;19;19926;-84
2023/06/07 11:33:46;;;;;;;1.85;1.05;;;19.50;99.90;;;;;;7399375;19;19922;-85
2023/06/07 11:36:17;;;;;;;1.70;0.80;;;19.70;99.90;;;;;;7401245;19;19926;-83
2023/06/07 11:39:04;;;;;;;2.50;1.08;;;19.90;99.90;;;;;;7399037;19;19923;-86
2023/06/07 11:41:35;;;;;;;2.08;1.17;;;20.00;99.90;;;;;;7399642;19;19950;-85
2023/06/07 11:44:09;;;;;;;1.92;1.00;;;20.00;99.90;;;;;;7400447;19;20316;-77
2023/06/07 11:46:42;;;;;;;1.40;0.90;;;19.90;99.90;;;;;;7399992;19;19922;-78
2023/06/07 11:49:12;;;;;;;1.95;1.05;;;19.90;99.90;;;;;;7398328;19;19923;-76
2023/06/07 11:51:43;;;;;;;1.27;0.70;;;20.10;99.90;;;;;;7394878;19;19943;-83
2023/06/07 11:54:12;;;;;;;2.17;0.82;;;20.10;99.90;;;;;;7399764;19;20277;-85
2023/06/07 11:56:44;;;;;;;1.48;0.75;;;20.20;99.90;;;;;;7396795;19;19922;-87
2023/06/07 11:59:17;;;;;;;2.30;1.27;;;20.50;99.90;;;;;;7398885;19;19958;-84
2023/06/07 12:01:48;;;;;;;2.83;1.10;;;20.60;99.90;;;;;;7397998;19;20330;-84
2023/06/07 12:04:18;;;;;;;2.42;0.85;;;20.70;99.90;;;;;;7400090;19;20334;-84
2023/06/07 12:06:49;;;;;;;2.00;1.00;;;20.70;99.90;;;;;;7395018;19;19974;-77
2023/06/07 12:09:21;;;;;;;2.08;0.70;;;20.80;99.90;;;;;;7399785;19;19928;-87
2023/06/07 12:11:53;;;;;;;2.35;0.90;;;21.20;99.90;;;;;;7400218;19;19915;-82
2023/06/07 12:14:39;;;;;;;2.00;0.80;;;21.00;99.90;;;;;;7396296;19;19918;-81
2023/06/07 12:17:15;;;;;;;1.77;0.80;;;21.20;99.90;;;;;;7400850;19;20363;-82
2023/06/07 12:19:45;;;;;;;2.75;0.93;;;20.70;99.90;;;;;;7402317;19;19930;-83
2023/06/07 12:22:15;;;;;;;2.50;0.73;;;20.60;99.90;;;;;;7396203;19;20343;-83
2023/06/07 12:24:44;;;;;;;2.90;0.98;;;20.80;99.90;;;;;;7392354;19;19926;-82
2023/06/07 12:27:16;;;;;;;2.25;0.90;;;21.00;99.90;;;;;;7392631;19;19926;-83
2023/06/07 12:30:18;;;;;;;2.83;1.00;;;21.00;99.90;;;;;;7395382;19;19926;-82
2023/06/07 12:33:02;;;;;;;2.55;0.73;;;21.00;99.90;;;;;;7394960;19;19931;-82
2023/06/07 12:35:43;;;;;;;2.45;1.00;;;21.00;99.90;;;;;;7383029;19;19933;-84
2023/06/07 12:38:16;;;;;;;2.95;1.02;;;20.90;99.90;;;;;;7396869;19;19926;-82
2023/06/07 12:40:56;;;;;;;1.73;1.10;;;20.80;99.90;;;;;;7377469;19;19943;-87
2023/06/07 12:43:26;;;;;;;1.42;0.80;;;20.80;99.90;;;;;;7398982;19;19922;-86
2023/06/07 12:45:58;;;;;;;1.05;0.77;;;21.20;99.90;;;;;;7396823;19;19994;-84
2023/06/07 12:48:35;;;;;;;2.50;0.80;;;21.20;99.90;;;;;;7392006;19;19922;-84
2023/06/07 12:51:07;;;;;;;3.83;0.90;;;21.30;99.90;;;;;;7390085;19;20388;-84
2023/06/07 12:56:25;;;;;;;1.33;0.82;;;21.40;99.90;;;;;;7393807;19;19952;-84
2023/06/07 12:58:54;;;;;;;1.50;0.80;;;21.70;99.90;;;;;;7390345;19;19933;-86
2023/06/07 13:01:27;;;;;;;2.75;0.90;;;21.80;99.90;;;;;;7390720;19;19956;-82
2023/06/07 13:03:59;;;;;;;1.88;0.85;;;21.80;99.90;;;;;;7399111;19;19930;-83
2023/06/07 13:06:28;;;;;;;1.55;0.88;;;21.90;99.90;;;;;;7389796;19;19938;-83
2023/06/07 13:09:11;;;;;;;2.78;0.90;;;21.80;99.90;;;;;;7392741;19;20277;-82
2023/06/07 13:11:40;;;;;;;1.30;0.82;;;21.70;99.90;;;;;;7392652;19;19923;-82
2023/06/07 13:14:25;;;;;;;2.45;0.90;;;21.90;99.90;;;;;;7394095;19;19979;-87
2023/06/07 13:16:54;;;;;;;2.03;1.00;;;23.00;99.90;;;;;;7389336;19;19939;-85
2023/06/07 13:19:26;;;;;;;2.70;1.20;;;22.00;99.90;;;;;;7395296;19;19922;-85